< < Back
Terminal Aerodrome Forecast


Current Version              Previous Versions:   1  2  3  4  5  6  7  8  9  

Terminal Aerodrome Forecast

165
FTUS44 KBMX 181720
TAFBHM
TAF
KBHM 181720Z 1818/1918 13005KT P6SM BKN025
     FM190600 14008KT 5SM SHRA OVC007
     FM191200 17008KT P6SM OVC007=

Latest METAR

619
SAUS70 KWBC 182300 RRA
MTRBHM
METAR KBHM 182253Z 20004KT 10SM BKN037 OVC120 22/17 A2994 RMK AO2 SLP131
T02170167


USA.gov is the U.S. government's official web portal to all federal, state and local government web resources and services.